Time;durP1;ratioP1;P1;durP2;ratioP2;P2;SDS_P1;SDS_P2;PMS_P1;PMS_P2;Temp;Humidity;BMP_temperature;BMP_pressure;BME280_temperature;BME280_humidity;BME280_pressure;Samples;Min_cycle;Max_cycle;Signal;HPM_P1;HPM_P2
2022/09/04 00:00:18;;;;;;;9.93;7.25;;;;;;;16.38;90.81;101079.78;1927445;29;20115;-80
2022/09/04 00:01:36;;;;;;;10.90;7.50;;;;;;;16.38;94.38;101080.63;1932824;29;20048;-79
2022/09/04 00:03:06;;;;;;;10.02;7.68;;;;;;;16.38;94.88;101085.06;1931949;29;20119;-79
2022/09/04 00:04:31;;;;;;;8.30;7.13;;;;;;;16.34;92.01;101084.38;1935465;29;20115;-79
2022/09/04 00:05:35;;;;;;;8.90;7.35;;;;;;;16.33;90.92;101086.16;1939754;29;20427;-78
2022/09/04 00:06:46;;;;;;;9.35;7.40;;;;;;;16.34;90.17;101085.25;1939558;29;20083;-79
2022/09/04 00:08:06;;;;;;;7.97;7.18;;;;;;;16.33;90.38;101088.81;1931870;29;20024;-79
2022/09/04 00:10:08;;;;;;;9.65;7.35;;;;;;;16.28;94.85;101090.88;1934206;29;20020;-78
2022/09/04 00:11:40;;;;;;;9.43;7.57;;;;;;;16.22;95.85;101093.94;1939713;29;20359;-80
2022/09/04 00:12:55;;;;;;;8.25;7.25;;;;;;;16.19;94.36;101097.56;1939721;29;20031;-77
2022/09/04 00:14:00;;;;;;;8.13;7.43;;;;;;;16.20;93.27;101091.38;1931824;29;20115;-81
2022/09/04 00:15:12;;;;;;;9.20;7.75;;;;;;;16.24;95.52;101089.38;1924702;29;20472;-78
2022/09/04 00:16:21;;;;;;;8.05;7.32;;;;;;;16.28;97.57;101098.78;1925357;29;20053;-79
2022/09/04 00:17:38;;;;;;;8.60;7.70;;;;;;;16.31;97.17;101095.09;1932481;29;20042;-82
2022/09/04 00:19:13;;;;;;;10.57;7.35;;;;;;;16.33;97.02;101095.88;1939760;29;20506;-77
2022/09/04 00:20:49;;;;;;;8.98;7.50;;;;;;;16.31;92.70;101097.75;1939819;29;20167;-77
2022/09/04 00:22:00;;;;;;;9.10;6.97;;;;;;;16.32;94.05;101102.09;1939565;29;20043;-78
2022/09/04 00:23:19;;;;;;;9.20;7.18;;;;;;;16.30;96.76;101099.56;1939212;29;20028;-80
2022/09/04 00:24:23;;;;;;;7.70;6.97;;;;;;;16.26;93.04;101107.72;1931654;29;20023;-78
2022/09/04 00:26:00;;;;;;;7.28;6.68;;;;;;;16.27;97.17;101104.16;1931839;29;20060;-78
2022/09/04 00:27:17;;;;;;;9.23;6.97;;;;;;;16.24;96.31;101097.28;1939508;29;20036;-80
2022/09/04 00:28:41;;;;;;;10.70;7.15;;;;;;;16.13;98.44;101108.50;1931665;29;20456;-79
2022/09/04 00:30:06;;;;;;;8.85;6.75;;;;;;;16.11;96.37;101105.09;1926523;29;20118;-77
2022/09/04 00:31:32;;;;;;;8.15;7.10;;;;;;;16.07;95.11;101107.09;1934711;29;20026;-80
2022/09/04 00:33:09;;;;;;;11.50;8.00;;;;;;;16.06;94.89;101102.78;1931641;29;20101;-78
2022/09/04 00:34:44;;;;;;;11.43;7.72;;;;;;;16.04;93.79;101109.03;1933415;29;20046;-78
2022/09/04 00:35:54;;;;;;;7.90;7.10;;;;;;;16.02;93.50;101108.31;1939553;29;20487;-79
2022/09/04 00:37:00;;;;;;;7.80;7.10;;;;;;;16.02;93.63;101103.91;1931537;29;20047;-79
2022/09/04 00:38:09;;;;;;;10.48;7.55;;;;;;;16.02;93.27;101103.03;1924399;29;20068;-80
2022/09/04 00:39:26;;;;;;;8.57;6.63;;;;;;;16.03;92.91;101107.38;1932274;29;20054;-79
2022/09/04 00:40:45;;;;;;;9.70;7.07;;;;;;;16.03;92.89;101099.47;1931547;29;20043;-79
2022/09/04 00:42:07;;;;;;;9.57;6.95;;;;;;;16.00;98.10;101099.66;1933516;29;20055;-78
2022/09/04 00:43:25;;;;;;;7.82;7.03;;;;;;;16.00;100.00;101107.53;1939255;29;20466;-79
2022/09/04 00:45:02;;;;;;;8.93;7.13;;;;;;;15.96;96.30;101101.63;1931700;29;20036;-78
2022/09/04 00:46:17;;;;;;;9.52;7.50;;;;;;;15.93;99.99;101105.28;1928477;29;20045;-80
2022/09/04 00:47:42;;;;;;;9.65;6.95;;;;;;;15.89;97.97;101105.53;1925706;29;20043;-78
2022/09/04 00:49:28;;;;;;;8.32;7.43;;;;;;;15.87;96.29;101103.00;1934227;29;20486;-79
2022/09/04 00:51:04;;;;;;;7.88;7.10;;;;;;;15.80;100.00;101109.56;1931507;29;20137;-80
2022/09/04 00:52:28;;;;;;;8.93;7.18;;;;;;;15.81;100.00;101108.66;1936324;29;20057;-80
2022/09/04 00:53:45;;;;;;;9.02;7.60;;;;;;;15.78;100.00;101108.84;1933064;29;20031;-76
2022/09/04 00:55:14;;;;;;;7.65;6.95;;;;;;;15.80;100.00;101113.06;1935106;29;20040;-79
2022/09/04 00:57:02;;;;;;;7.15;6.53;;;;;;;15.78;100.00;101116.72;1933303;29;20038;-78
2022/09/04 00:58:27;;;;;;;8.55;7.35;;;;;;;15.78;100.00;101112.28;1938891;29;20026;-78
2022/09/04 01:00:06;;;;;;;9.00;7.00;;;;;;;15.77;97.56;101113.25;1933162;29;20036;-81
2022/09/04 01:01:04;;;;;;;7.88;7.07;;;;;;;15.74;95.81;101112.59;1937803;29;20016;-78
2022/09/04 01:02:16;;;;;;;7.30;6.60;;;;;;;15.77;95.37;101113.25;1940933;29;20461;-78
2022/09/04 01:03:41;;;;;;;7.40;6.65;;;;;;;15.73;95.23;101111.72;1933140;29;20024;-80
2022/09/04 01:04:59;;;;;;;7.90;6.65;;;;;;;15.73;95.42;101118.81;1928471;29;20099;-79
2022/09/04 01:06:34;;;;;;;8.65;6.82;;;;;;;15.69;97.95;101115.50;1934564;29;20067;-79
2022/09/04 01:08:06;;;;;;;9.15;7.05;;;;;;;15.64;97.27;101118.38;1932959;29;20031;-79
2022/09/04 01:09:36;;;;;;;10.05;6.55;;;;;;;15.63;100.00;101121.97;1936813;29;20028;-81
2022/09/04 01:11:13;;;;;;;7.45;6.68;;;;;;;15.57;96.79;101125.81;1933200;29;20510;-80
2022/09/04 01:12:27;;;;;;;7.88;6.80;;;;;;;15.55;98.95;101126.84;1937437;29;20035;-80
2022/09/04 01:13:56;;;;;;;7.85;7.05;;;;;;;15.54;97.75;101139.13;1941035;29;20391;-80
2022/09/04 01:15:14;;;;;;;7.28;6.40;;;;;;;15.55;98.70;101126.84;1941054;29;20036;-80
2022/09/04 01:16:40;;;;;;;7.90;6.88;;;;;;;15.53;98.13;101131.34;1932909;29;20622;-79
2022/09/04 01:18:01;;;;;;;7.07;6.22;;;;;;;15.51;98.36;101133.22;1935976;29;20078;-79
2022/09/04 01:19:23;;;;;;;8.02;6.25;;;;;;;15.47;100.00;101132.56;1933006;29;20054;-79
2022/09/04 01:20:52;;;;;;;6.97;6.28;;;;;;;15.52;100.00;101140.16;1935422;29;20047;-78
2022/09/04 01:22:20;;;;;;;8.98;6.78;;;;;;;15.54;100.00;101138.31;1933013;29;20084;-79
2022/09/04 01:24:01;;;;;;;7.10;6.45;;;;;;;15.52;100.00;101134.91;1936110;29;20032;-80
2022/09/04 01:25:15;;;;;;;6.90;6.30;;;;;;;15.50;100.00;101134.97;1932855;29;20414;-78
2022/09/04 01:26:30;;;;;;;7.38;6.68;;;;;;;15.55;100.00;101145.25;1934431;29;20474;-79
2022/09/04 01:27:54;;;;;;;7.32;6.63;;;;;;;15.55;99.84;101145.25;1940891;29;20031;-79
2022/09/04 01:29:31;;;;;;;7.75;6.68;;;;;;;15.53;99.33;101149.75;1940854;29;20106;-80
2022/09/04 01:30:42;;;;;;;7.28;6.60;;;;;;;15.52;100.00;101150.69;1940733;29;20039;-79
2022/09/04 01:32:04;;;;;;;7.28;6.55;;;;;;;15.50;100.00;101149.94;1940931;29;20451;-79
2022/09/04 01:33:15;;;;;;;8.65;6.28;;;;;;;15.50;99.62;101155.19;1940833;29;20043;-80
2022/09/04 01:34:41;;;;;;;10.52;6.72;;;;;;;15.50;100.00;101157.81;1940838;29;20336;-79
2022/09/04 01:36:09;;;;;;;8.15;6.50;;;;;;;15.53;100.00;101152.41;1940810;29;20036;-78
2022/09/04 01:37:28;;;;;;;6.95;6.25;;;;;;;15.48;100.00;101155.28;1940314;29;20032;-79
2022/09/04 01:38:53;;;;;;;7.32;6.35;;;;;;;15.48;100.00;101149.16;1932801;29;20120;-79
2022/09/04 01:40:29;;;;;;;10.05;6.80;;;;;;;15.45;100.00;101151.06;1928215;29;20072;-79
2022/09/04 01:41:32;;;;;;;6.65;6.05;;;;;;;15.44;99.75;101151.97;1929276;29;20074;-78
2022/09/04 01:42:46;;;;;;;7.25;6.55;;;;;;;15.49;99.32;101153.47;1932864;29;20036;-83
2022/09/04 01:43:44;;;;;;;10.73;6.80;;;;;;;15.49;99.30;101148.22;1940226;29;20463;-79
2022/09/04 01:44:41;;;;;;;8.40;6.53;;;;;;;15.53;99.56;101150.59;1940315;29;20095;-80
2022/09/04 01:46:11;;;;;;;7.30;6.60;;;;;;;15.60;100.00;101151.06;1940813;29;20055;-78
2022/09/04 01:47:50;;;;;;;6.93;6.20;;;;;;;15.56;100.00;101146.94;1932637;29;20405;-78
2022/09/04 01:49:26;;;;;;;7.43;6.00;;;;;;;15.55;100.00;101150.50;1914346;29;20576;-79
2022/09/04 01:50:31;;;;;;;7.07;6.13;;;;;;;15.56;100.00;101152.19;1940255;29;20038;-79
2022/09/04 01:51:39;;;;;;;6.85;6.22;;;;;;;15.56;99.17;101153.06;1932576;29;20439;-78
2022/09/04 01:53:11;;;;;;;7.28;6.68;;;;;;;15.58;100.00;101158.22;1933213;29;20143;-78
2022/09/04 01:54:29;;;;;;;7.90;7.10;;;;;;;15.57;100.00;101169.69;1932614;29;20020;-78
2022/09/04 01:55:43;;;;;;;8.30;6.75;;;;;;;15.53;100.00;101163.75;1934390;29;20035;-79
2022/09/04 01:56:59;;;;;;;7.35;6.65;;;;;;;15.54;100.00;101161.97;1932706;29;20140;-80
2022/09/04 01:58:15;;;;;;;9.30;6.55;;;;;;;15.55;100.00;101168.91;1934164;29;20122;-78
2022/09/04 01:59:25;;;;;;;9.05;6.10;;;;;;;15.54;100.00;101164.59;1932812;29;20058;-82
2022/09/04 02:00:24;;;;;;;6.80;6.07;;;;;;;15.55;100.00;101155.78;1933755;29;20054;-79
2022/09/04 02:01:37;;;;;;;6.45;5.90;;;;;;;15.55;99.60;101163.66;1932706;29;20187;-78
2022/09/04 02:03:15;;;;;;;7.55;6.20;;;;;;;15.55;100.00;101163.66;1933714;29;20043;-79
2022/09/04 02:04:44;;;;;;;7.07;6.38;;;;;;;15.47;100.00;101166.75;1932562;29;20452;-81
2022/09/04 02:06:00;;;;;;;6.53;6.03;;;;;;;15.43;100.00;101168.69;1936053;29;20430;-80
2022/09/04 02:07:21;;;;;;;7.05;6.38;;;;;;;15.42;100.00;101172.25;1932674;29;20070;-80
2022/09/04 02:08:32;;;;;;;;;;;;;;;15.38;100.00;101173.38;1927728;29;20032;-78
2022/09/04 02:09:50;;;;;;;6.72;6.13;;;;;;;15.40;100.00;101179.38;1932657;29;20369;-79
2022/09/04 02:11:07;;;;;;;6.40;5.75;;;;;;;15.39;100.00;101176.84;1934413;29;20084;-79
2022/09/04 02:12:21;;;;;;;6.43;5.82;;;;;;;15.40;100.00;101184.63;1940208;29;20116;-78
2022/09/04 02:13:43;;;;;;;7.00;6.10;;;;;;;15.40;100.00;101184.63;1932603;29;20075;-78
2022/09/04 02:15:05;;;;;;;8.75;5.90;;;;;;;15.40;100.00;101174.13;1935005;29;20035;-80
2022/09/04 02:16:18;;;;;;;7.38;6.68;;;;;;;15.32;100.00;101182.47;1932641;29;20020;-78
2022/09/04 02:17:51;;;;;;;7.35;6.72;;;;;;;15.30;100.00;101186.13;1934114;29;20367;-78
2022/09/04 02:19:02;;;;;;;7.55;6.55;;;;;;;15.28;100.00;101185.34;1940483;29;20114;-79
2022/09/04 02:20:29;;;;;;;7.88;7.07;;;;;;;15.34;100.00;101182.38;1932646;29;20024;-79
2022/09/04 02:21:35;;;;;;;7.47;6.88;;;;;;;15.31;100.00;101185.19;1935647;29;20043;-79
2022/09/04 02:22:57;;;;;;;9.77;7.30;;;;;;;15.51;100.00;101188.44;1932356;29;20039;-81
2022/09/04 02:24:11;;;;;;;8.70;7.22;;;;;;;15.49;100.00;101187.66;1927480;29;20119;-79
2022/09/04 02:25:29;;;;;;;8.85;7.63;;;;;;;15.53;100.00;101189.22;1926199;29;20024;-78
2022/09/04 02:26:50;;;;;;;10.95;7.22;;;;;;;15.60;100.00;101184.44;1934171;29;20047;-79
2022/09/04 02:28:05;;;;;;;7.38;6.55;;;;;;;15.66;100.00;101195.44;1932554;29;20487;-78
2022/09/04 02:29:50;;;;;;;7.97;7.18;;;;;;;15.70;100.00;101191.69;1934138;29;20093;-77
2022/09/04 02:31:03;;;;;;;9.05;6.00;;;;;;;15.67;100.00;101191.03;1940036;29;20016;-79
2022/09/04 02:32:19;;;;;;;9.13;6.28;;;;;;;15.64;100.00;101194.66;1932482;29;20498;-78
2022/09/04 02:33:36;;;;;;;7.93;6.50;;;;;;;15.62;100.00;101193.06;1933905;29;20075;-79
2022/09/04 02:34:48;;;;;;;7.40;6.70;;;;;;;15.61;100.00;101194.88;1932520;29;20038;-78
2022/09/04 02:36:04;;;;;;;7.05;6.40;;;;;;;15.61;100.00;101201.91;1932342;29;20039;-78
2022/09/04 02:37:21;;;;;;;7.75;7.05;;;;;;;15.55;100.00;101195.22;1934100;29;20064;-77
2022/09/04 02:38:35;;;;;;;7.30;6.60;;;;;;;15.50;100.00;101199.91;1932383;29;20418;-78
2022/09/04 02:39:54;;;;;;;7.30;6.55;;;;;;;15.47;100.00;101195.69;1933895;29;20442;-77
2022/09/04 02:41:03;;;;;;;7.90;7.05;;;;;;;15.51;100.00;101197.19;1932388;29;20064;-78
2022/09/04 02:42:13;;;;;;;8.15;6.88;;;;;;;15.58;100.00;101201.13;1925483;29;20048;-78
2022/09/04 02:43:35;;;;;;;8.82;7.10;;;;;;;15.66;100.00;101198.06;1933211;29;20123;-78
2022/09/04 02:45:07;;;;;;;7.68;6.93;;;;;;;15.61;100.00;101200.13;1940247;29;20304;-79
2022/09/04 02:46:43;;;;;;;7.85;7.00;;;;;;;15.64;100.00;101199.94;1932254;29;20024;-77
2022/09/04 02:48:00;;;;;;;7.20;6.53;;;;;;;15.60;100.00;101206.31;1936565;29;20035;-77
2022/09/04 02:49:36;;;;;;;8.80;7.60;;;;;;;15.66;100.00;101200.72;1939722;29;20023;-79
2022/09/04 02:51:02;;;;;;;8.65;7.78;;;;;;;15.77;100.00;101207.13;1926207;29;20075;-78
2022/09/04 02:52:51;;;;;;;8.30;7.50;;;;;;;15.93;100.00;101192.13;1940016;29;20067;-78
2022/09/04 02:54:16;;;;;;;9.93;7.13;;;;;;;15.92;100.00;101203.59;1939435;29;20031;-79
2022/09/04 02:55:51;;;;;;;8.02;7.32;;;;;;;15.93;100.00;101207.91;1932351;29;20032;-78
2022/09/04 02:57:33;;;;;;;8.88;7.72;;;;;;;16.01;100.00;101204.84;1928814;29;20035;-79
2022/09/04 02:59:28;;;;;;;8.05;6.60;;;;;;;16.13;100.00;101207.69;1937088;29;20046;-79
2022/09/04 03:00:53;;;;;;;8.18;7.38;;;;;;;16.03;100.00;101207.38;1940035;29;20046;-78
2022/09/04 03:01:59;;;;;;;7.78;7.07;;;;;;;16.06;100.00;101207.22;1932253;29;20031;-80
2022/09/04 03:03:30;;;;;;;8.73;7.50;;;;;;;16.07;100.00;101208.88;1932443;29;20038;-80
2022/09/04 03:04:48;;;;;;;8.85;7.90;;;;;;;16.02;100.00;101209.19;1932180;29;20040;-80
2022/09/04 03:06:41;;;;;;;9.80;8.07;;;;;;;15.99;100.00;101213.78;1934065;29;20124;-79
2022/09/04 03:07:52;;;;;;;8.20;7.40;;;;;;;15.93;100.00;101207.91;1909536;29;20470;-79
2022/09/04 03:08:58;;;;;;;;;;;;;;;15.99;100.00;101208.50;1931037;29;20031;-77
2022/09/04 03:10:23;;;;;;;8.25;7.43;;;;;;;16.00;100.00;101207.56;1932200;29;19918;-79
2022/09/04 03:11:49;;;;;;;9.95;7.63;;;;;;;15.93;100.00;101210.53;1929465;29;20042;-78
2022/09/04 03:13:30;;;;;;;10.05;7.65;;;;;;;15.95;100.00;101208.69;1939828;29;20489;-81
2022/09/04 03:14:40;;;;;;;7.90;7.10;;;;;;;15.90;100.00;101208.09;1938578;29;20045;-80
2022/09/04 03:16:01;;;;;;;7.43;6.72;;;;;;;15.93;100.00;101217.59;1939432;29;20036;-80
2022/09/04 03:17:18;;;;;;;8.32;7.53;;;;;;;15.88;100.00;101217.03;1932051;29;20023;-78
2022/09/04 03:18:33;;;;;;;10.88;7.45;;;;;;;15.86;100.00;101217.09;1933810;29;20036;-78
2022/09/04 03:19:56;;;;;;;8.35;7.13;;;;;;;15.90;100.00;101218.63;1931969;29;20040;-79
2022/09/04 03:21:01;;;;;;;10.85;8.20;;;;;;;15.84;100.00;101216.34;1934437;29;20335;-82
2022/09/04 03:22:29;;;;;;;8.10;7.18;;;;;;;15.81;100.00;101220.00;1932177;29;20028;-78
2022/09/04 03:24:08;;;;;;;8.55;7.53;;;;;;;15.77;100.00;101217.66;1916735;29;20045;-78
2022/09/04 03:25:37;;;;;;;8.55;7.03;;;;;;;15.79;100.00;101221.03;1932137;29;20035;-80
2022/09/04 03:26:40;;;;;;;8.30;7.40;;;;;;;15.69;100.00;101226.84;1920375;29;20135;-80
2022/09/04 03:27:38;;;;;;;12.18;8.02;;;;;;;15.71;100.00;101219.69;1932051;29;20039;-78
2022/09/04 03:29:15;;;;;;;9.35;7.68;;;;;;;15.76;100.00;101224.69;1924727;29;20474;-78
2022/09/04 03:30:14;;;;;;;8.07;7.28;;;;;;;15.70;100.00;101220.63;1936715;29;20039;-78
2022/09/04 03:31:27;;;;;;;9.52;7.68;;;;;;;15.79;100.00;101221.03;1932159;29;20031;-78
2022/09/04 03:32:47;;;;;;;8.68;7.78;;;;;;;15.77;100.00;101220.28;1933352;29;20043;-78
2022/09/04 03:34:14;;;;;;;9.55;8.13;;;;;;;15.71;100.00;101222.31;1940127;29;20039;-79
2022/09/04 03:35:38;;;;;;;7.75;7.05;;;;;;;15.67;100.00;101228.69;1932071;29;20070;-79
2022/09/04 03:37:24;;;;;;;8.40;7.45;;;;;;;15.60;100.00;101222.09;1934469;29;20467;-78
2022/09/04 03:38:39;;;;;;;8.00;7.20;;;;;;;15.55;100.00;101225.00;1931869;29;20032;-78
2022/09/04 03:40:16;;;;;;;8.50;7.60;;;;;;;15.51;100.00;101227.91;1933565;29;20127;-80
2022/09/04 03:41:38;;;;;;;8.82;7.32;;;;;;;15.44;100.00;101228.22;1939963;29;20067;-77
2022/09/04 03:43:13;;;;;;;9.23;8.32;;;;;;;15.42;100.00;101218.75;1932021;29;20499;-80
2022/09/04 03:44:35;;;;;;;8.98;8.05;;;;;;;15.41;100.00;101231.06;1931925;29;20036;-78
2022/09/04 03:46:13;;;;;;;9.02;8.13;;;;;;;15.51;100.00;101227.91;1934493;29;20108;-80
2022/09/04 03:47:31;;;;;;;9.02;8.10;;;;;;;15.39;100.00;101225.03;1932019;29;20052;-79
2022/09/04 03:49:00;;;;;;;9.48;7.40;;;;;;;15.41;100.00;101225.81;1934008;29;20051;-78
2022/09/04 03:50:16;;;;;;;7.30;6.63;;;;;;;15.37;100.00;101224.28;1939933;29;20023;-80
2022/09/04 03:51:33;;;;;;;8.43;7.63;;;;;;;15.36;100.00;101227.00;1939801;29;20042;-78
2022/09/04 03:53:17;;;;;;;8.50;7.47;;;;;;;15.33;100.00;101230.66;1939416;29;20139;-80
2022/09/04 03:54:49;;;;;;;9.05;8.15;;;;;;;15.29;100.00;101229.09;1933943;29;20356;-81
2022/09/04 03:56:31;;;;;;;8.85;7.95;;;;;;;15.39;100.00;101235.53;1931894;29;20063;-79
2022/09/04 03:57:59;;;;;;;9.95;8.18;;;;;;;15.44;100.00;101230.88;1932010;29;20100;-80
2022/09/04 03:59:07;;;;;;;8.93;8.00;;;;;;;15.36;100.00;101235.72;1935143;29;20094;-78
2022/09/04 04:00:22;;;;;;;9.63;8.60;;;;;;;15.37;100.00;101237.44;1931718;29;20024;-79
2022/09/04 04:01:28;;;;;;;9.48;8.57;;;;;;;15.35;100.00;101234.03;1933263;29;20118;-79
2022/09/04 04:02:50;;;;;;;9.77;8.77;;;;;;;15.37;100.00;101242.69;1931815;29;20075;-78
2022/09/04 04:04:07;;;;;;;11.55;9.15;;;;;;;15.35;100.00;101238.44;1932042;29;20032;-81
2022/09/04 04:05:35;;;;;;;10.70;9.70;;;;;;;15.33;100.00;101230.66;1931857;29;20555;-78
2022/09/04 04:06:47;;;;;;;10.02;9.10;;;;;;;15.40;100.00;101236.41;1931832;29;20035;-77
2022/09/04 04:08:15;;;;;;;10.45;8.63;;;;;;;15.43;100.00;101234.44;1932837;29;20035;-78
2022/09/04 04:09:52;;;;;;;9.75;8.90;;;;;;;15.42;100.00;101239.78;1939517;29;20469;-78
2022/09/04 04:11:08;;;;;;;11.02;9.93;;;;;;;15.43;100.00;101244.97;1939474;29;20027;-80
2022/09/04 04:12:12;;;;;;;10.05;9.05;;;;;;;15.46;100.00;101238.66;1939366;29;20451;-79
2022/09/04 04:13:15;;;;;;;9.57;8.68;;;;;;;15.54;100.00;101249.59;1931819;29;20115;-79
2022/09/04 04:14:34;;;;;;;9.57;8.30;;;;;;;15.56;100.00;101246.88;1931789;29;20028;-78
2022/09/04 04:16:02;;;;;;;10.43;8.57;;;;;;;15.50;100.00;101247.25;1931718;29;20420;-81
2022/09/04 04:17:40;;;;;;;9.55;8.55;;;;;;;15.48;100.00;101249.97;1934872;29;20016;-78
2022/09/04 04:19:09;;;;;;;10.15;9.15;;;;;;;15.47;100.00;101252.69;1931777;29;20036;-80
2022/09/04 04:20:35;;;;;;;10.15;8.45;;;;;;;15.40;100.00;101252.19;1931366;29;20043;-77
2022/09/04 04:22:19;;;;;;;11.57;8.48;;;;;;;15.39;100.00;101255.72;1927790;29;20048;-80
2022/09/04 04:24:01;;;;;;;9.60;8.63;;;;;;;15.36;100.00;101262.00;1937331;29;20035;-77
2022/09/04 04:25:23;;;;;;;10.02;9.02;;;;;;;15.38;100.00;101260.16;1939797;29;20056;-78
2022/09/04 04:26:51;;;;;;;9.70;8.70;;;;;;;15.33;100.00;101256.94;1939064;29;20027;-79
2022/09/04 04:28:11;;;;;;;10.25;9.23;;;;;;;15.32;100.00;101257.84;1931766;29;20028;-80
2022/09/04 04:29:18;;;;;;;;;;;;;;;15.30;100.00;101262.38;1934477;29;20512;-79
2022/09/04 04:30:16;;;;;;;11.07;8.75;;;;;;;15.32;100.00;101268.38;1939684;29;19911;-84
2022/09/04 04:31:21;;;;;;;12.05;9.07;;;;;;;15.34;100.00;101274.41;1931815;29;20115;-79
2022/09/04 04:32:43;;;;;;;11.05;9.57;;;;;;;15.44;100.00;101270.31;1931548;29;20074;-79
2022/09/04 04:33:57;;;;;;;13.18;9.27;;;;;;;15.39;100.00;101267.09;1939331;29;20038;-80
2022/09/04 04:35:03;;;;;;;10.75;8.93;;;;;;;15.40;100.00;101265.34;1939674;29;20031;-77
2022/09/04 04:36:44;;;;;;;11.13;9.18;;;;;;;15.39;100.00;101266.25;1939533;29;20435;-78
2022/09/04 04:38:11;;;;;;;9.45;8.50;;;;;;;15.36;100.00;101264.63;1939780;29;20039;-78
2022/09/04 04:39:48;;;;;;;9.43;8.55;;;;;;;15.30;100.00;101270.25;1939104;29;20040;-78
2022/09/04 04:42:02;;;;;;;9.95;8.93;;;;;;;15.28;100.00;101266.84;1939055;29;20051;-78
2022/09/04 04:43:06;;;;;;;10.75;8.73;;;;;;;15.23;100.00;101266.28;1939546;29;20131;-77
2022/09/04 04:44:16;;;;;;;10.63;8.63;;;;;;;15.22;100.00;101275.09;1939080;29;20020;-79
2022/09/04 04:45:50;;;;;;;9.68;8.68;;;;;;;15.18;100.00;101264.75;1939065;29;20066;-78
2022/09/04 04:47:34;;;;;;;9.45;8.30;;;;;;;15.11;100.00;101267.78;1939339;29;20038;-79
2022/09/04 04:48:49;;;;;;;8.90;8.00;;;;;;;15.08;100.00;101267.97;1938732;29;20474;-76
2022/09/04 04:50:12;;;;;;;9.02;8.07;;;;;;;15.11;100.00;101267.78;1938888;29;20038;-77
2022/09/04 04:51:41;;;;;;;10.27;8.40;;;;;;;15.01;100.00;101263.03;1938877;29;20361;-77
2022/09/04 04:52:44;;;;;;;10.30;8.73;;;;;;;14.98;100.00;101273.72;1931714;29;20048;-77
2022/09/04 04:53:52;;;;;;;9.75;8.73;;;;;;;14.99;100.00;101271.94;1931876;29;20376;-76
2022/09/04 04:55:37;;;;;;;11.95;9.00;;;;;;;14.96;100.00;101269.47;1939597;29;20023;-77
2022/09/04 04:57:11;;;;;;;10.10;9.10;;;;;;;14.93;100.00;101275.75;1939585;29;20091;-77
2022/09/04 04:59:19;;;;;;;11.30;9.48;;;;;;;14.90;100.00;101275.91;1939038;29;20031;-78
2022/09/04 05:00:21;;;;;;;10.05;8.93;;;;;;;14.79;100.00;101271.25;1937329;29;20043;-76
2022/09/04 05:01:41;;;;;;;11.20;9.30;;;;;;;14.80;100.00;101272.94;1939077;29;20074;-77
2022/09/04 05:03:14;;;;;;;11.40;10.05;;;;;;;14.81;100.00;101277.25;1939224;29;20054;-78
2022/09/04 05:04:51;;;;;;;11.85;10.32;;;;;;;14.80;100.00;101283.44;1931258;29;20175;-77
2022/09/04 05:06:35;;;;;;;11.73;9.98;;;;;;;14.78;100.00;101287.94;1935674;29;20042;-77
2022/09/04 05:07:38;;;;;;;11.55;9.40;;;;;;;14.79;100.00;101285.22;1932345;29;20072;-77
2022/09/04 05:08:47;;;;;;;12.45;10.15;;;;;;;14.82;100.00;101284.22;1939050;29;20067;-77
2022/09/04 05:10:17;;;;;;;11.15;9.18;;;;;;;14.85;100.00;101294.53;1939074;29;20117;-76
2022/09/04 05:11:40;;;;;;;10.55;9.45;;;;;;;14.82;100.00;101294.72;1931222;29;20036;-76
2022/09/04 05:13:24;;;;;;;11.38;9.57;;;;;;;14.88;100.00;101291.75;1931724;29;20052;-77
2022/09/04 05:14:45;;;;;;;11.40;9.50;;;;;;;14.84;100.00;101292.00;1939100;29;20044;-76
2022/09/04 05:16:01;;;;;;;10.07;9.07;;;;;;;14.83;100.00;101301.66;1938870;29;20036;-77
2022/09/04 05:17:23;;;;;;;11.48;10.30;;;;;;;14.86;100.00;101298.88;1939180;29;20034;-76
2022/09/04 05:18:42;;;;;;;11.10;9.98;;;;;;;14.88;100.00;101299.63;1938982;29;20051;-78
2022/09/04 05:20:10;;;;;;;11.95;10.75;;;;;;;14.88;100.00;101299.63;1939455;29;20040;-77
2022/09/04 05:22:07;;;;;;;13.55;10.98;;;;;;;14.90;100.00;101302.19;1938684;29;20055;-77
2022/09/04 05:23:21;;;;;;;12.65;10.60;;;;;;;14.94;100.00;101303.72;1939128;29;20040;-77
2022/09/04 05:25:08;;;;;;;11.20;9.30;;;;;;;14.99;100.00;101303.47;1939309;29;20035;-77
2022/09/04 05:26:43;;;;;;;15.45;10.63;;;;;;;14.95;100.00;101309.84;1939519;29;20027;-77
2022/09/04 05:28:33;;;;;;;12.48;11.25;;;;;;;14.98;100.00;101315.75;1938846;29;20023;-78
2022/09/04 05:29:51;;;;;;;13.43;10.63;;;;;;;15.14;100.00;101317.56;1931431;29;20080;-77
2022/09/04 05:31:06;;;;;;;13.82;11.15;;;;;;;15.21;100.00;101323.31;1933310;29;20024;-78
2022/09/04 05:32:24;;;;;;;13.18;10.95;;;;;;;15.24;100.00;101320.53;1939523;29;20459;-78
2022/09/04 05:34:11;;;;;;;12.48;11.27;;;;;;;15.27;100.00;101321.25;1931385;29;20063;-79
2022/09/04 05:35:24;;;;;;;11.55;10.32;;;;;;;15.34;100.00;101327.00;1937390;29;20400;-76
2022/09/04 05:36:58;;;;;;;12.02;10.02;;;;;;;15.45;100.00;101332.50;1939442;29;20038;-77
2022/09/04 05:38:21;;;;;;;11.20;10.10;;;;;;;15.49;100.00;101324.44;1939622;29;20046;-76
2022/09/04 05:39:52;;;;;;;13.25;10.43;;;;;;;15.50;100.00;101326.97;1940724;29;20038;-78
2022/09/04 05:41:08;;;;;;;12.35;11.07;;;;;;;15.51;100.00;101333.09;1940787;29;20036;-78
2022/09/04 05:42:48;;;;;;;14.27;11.73;;;;;;;15.55;100.00;101335.47;1932745;29;20085;-77
2022/09/04 05:44:24;;;;;;;;;;;;;;;15.58;100.00;101339.72;1933161;29;20082;-79
2022/09/04 05:45:34;;;;;;;12.50;10.43;;;;;;;15.57;100.00;101332.78;1937172;29;19914;-78
2022/09/04 05:47:08;;;;;;;12.20;10.90;;;;;;;15.64;100.00;101343.78;1940524;29;20093;-77
2022/09/04 05:48:28;;;;;;;11.35;10.25;;;;;;;15.71;100.00;101339.88;1932055;29;20601;-79
2022/09/04 05:50:04;;;;;;;11.50;10.32;;;;;;;15.82;100.00;101347.16;1934457;29;20050;-78
2022/09/04 05:51:31;;;;;;;10.98;9.88;;;;;;;15.87;100.00;101344.28;1932105;29;20035;-80
2022/09/04 05:52:52;;;;;;;11.88;10.25;;;;;;;16.02;100.00;101347.84;1935224;29;20467;-79
2022/09/04 05:54:23;;;;;;;11.23;10.00;;;;;;;16.09;100.00;101351.81;1931850;29;20028;-78
2022/09/04 05:55:33;;;;;;;14.18;11.18;;;;;;;16.16;100.00;101349.66;1935928;29;20499;-78
2022/09/04 05:56:47;;;;;;;11.57;9.63;;;;;;;16.24;100.00;101357.97;1940037;29;20506;-79
2022/09/04 05:57:50;;;;;;;10.88;9.77;;;;;;;16.25;100.00;101353.56;1940165;29;20098;-79
2022/09/04 05:59:41;;;;;;;11.65;10.32;;;;;;;16.26;100.00;101355.25;1932085;29;20043;-78
2022/09/04 06:01:25;;;;;;;11.95;10.13;;;;;;;16.22;100.00;101357.22;1915824;29;20048;-78
2022/09/04 06:03:20;;;;;;;14.27;10.55;;;;;;;16.21;100.00;101358.13;1937185;29;20421;-77
2022/09/04 06:04:47;;;;;;;10.80;9.60;;;;;;;16.16;100.00;101355.78;1946065;28;20024;-78
2022/09/04 06:06:12;;;;;;;11.13;9.43;;;;;;;16.17;100.00;101357.47;1944708;28;20035;-78
2022/09/04 06:07:30;;;;;;;12.95;10.50;;;;;;;16.21;100.00;101359.00;1944101;28;20051;-77
2022/09/04 06:08:52;;;;;;;12.60;10.43;;;;;;;16.29;100.00;101368.25;1945357;29;20035;-79
2022/09/04 06:10:34;;;;;;;11.45;10.20;;;;;;;16.26;100.00;101363.16;1940107;29;20476;-78
2022/09/04 06:11:55;;;;;;;11.52;10.30;;;;;;;16.35;100.00;101365.22;1944526;29;20037;-77
2022/09/04 06:13:38;;;;;;;15.10;10.27;;;;;;;16.37;100.00;101371.28;1947464;29;20031;-79
2022/09/04 06:15:11;;;;;;;22.33;10.48;;;;;;;16.41;100.00;101370.16;1954390;28;20070;-78
2022/09/04 06:16:35;;;;;;;12.20;10.10;;;;;;;16.50;100.00;101367.91;1943267;28;20043;-77
2022/09/04 06:18:04;;;;;;;10.88;9.82;;;;;;;16.59;100.00;101367.34;1946871;29;20126;-78
2022/09/04 06:19:25;;;;;;;11.05;9.80;;;;;;;16.47;100.00;101364.53;1943813;29;20063;-80
2022/09/04 06:20:52;;;;;;;13.82;10.15;;;;;;;16.48;100.00;101366.22;1940632;29;20042;-78
2022/09/04 06:22:04;;;;;;;11.00;9.82;;;;;;;16.52;100.00;101363.41;1940517;29;20086;-81
2022/09/04 06:23:33;;;;;;;12.55;10.25;;;;;;;16.57;100.00;101369.25;1940540;29;20059;-78